createdAt,value
2019-06-20T00:00:44.214Z,99.90
2019-06-20T00:03:13.971Z,99.90
2019-06-20T00:05:43.471Z,99.90
2019-06-20T00:08:13.327Z,99.90
2019-06-20T00:10:43.432Z,99.90
2019-06-20T00:13:12.839Z,99.90
2019-06-20T00:15:42.267Z,99.90
2019-06-20T00:18:11.669Z,99.90
2019-06-20T00:20:41.153Z,99.90
2019-06-20T00:23:10.550Z,99.90
2019-06-20T00:25:39.991Z,99.90
2019-06-20T00:28:09.404Z,99.90
2019-06-20T00:30:38.880Z,99.90
2019-06-20T00:33:08.607Z,99.90
2019-06-20T00:35:38.014Z,99.90
2019-06-20T00:38:07.422Z,99.90
2019-06-20T00:40:36.858Z,99.90
2019-06-20T00:43:16.889Z,99.90
2019-06-20T00:45:37.388Z,99.90
2019-06-20T00:48:06.781Z,99.90
2019-06-20T00:50:36.333Z,99.90
2019-06-20T00:53:05.758Z,99.90
2019-06-20T00:55:35.494Z,99.90
2019-06-20T00:58:05.052Z,99.90
2019-06-20T01:00:34.533Z,99.90
2019-06-20T01:03:04.447Z,99.90
2019-06-20T01:05:33.861Z,99.90
2019-06-20T01:08:03.300Z,99.90
2019-06-20T01:10:32.714Z,99.90
2019-06-20T01:13:02.127Z,99.90
2019-06-20T01:15:32.676Z,99.90
2019-06-20T01:18:02.094Z,99.90
2019-06-20T01:20:31.590Z,99.90
2019-06-20T01:23:01.010Z,99.90
2019-06-20T01:25:41.478Z,99.90
2019-06-20T01:28:11.205Z,99.90
2019-06-20T01:30:40.649Z,99.90
2019-06-20T01:33:10.401Z,99.90
2019-06-20T01:35:39.852Z,99.90
2019-06-20T01:38:09.296Z,99.90
2019-06-20T01:40:38.703Z,99.90
2019-06-20T01:43:08.124Z,99.90
2019-06-20T01:45:37.946Z,99.90
2019-06-20T01:48:07.378Z,99.90
2019-06-20T01:50:36.804Z,99.90
2019-06-20T01:53:06.222Z,99.90
2019-06-20T01:55:35.695Z,99.90
2019-06-20T01:58:05.531Z,99.90
2019-06-20T02:00:48.857Z,99.90
2019-06-20T02:03:18.694Z,99.90
2019-06-20T02:05:48.561Z,99.90
2019-06-20T02:08:17.990Z,99.90
2019-06-20T02:10:48.003Z,99.90
2019-06-20T02:13:17.396Z,99.90
2019-06-20T02:15:46.813Z,99.90
2019-06-20T02:18:16.252Z,99.90
2019-06-20T02:20:52.235Z,99.90
2019-06-20T02:23:22.567Z,99.90
2019-06-20T02:25:52.165Z,99.90
2019-06-20T02:28:21.713Z,99.90
2019-06-20T02:30:51.742Z,99.90
2019-06-20T02:33:21.167Z,99.90
2019-06-20T02:35:50.606Z,99.90
2019-06-20T02:38:20.014Z,99.90
2019-06-20T02:40:49.553Z,99.90
2019-06-20T02:43:18.978Z,99.90
2019-06-20T02:45:48.407Z,99.90
2019-06-20T02:48:18.273Z,99.90
2019-06-20T02:50:47.690Z,99.90
2019-06-20T02:53:17.525Z,99.90
2019-06-20T02:55:46.924Z,99.90
2019-06-20T02:58:16.361Z,99.90
2019-06-20T03:00:58.881Z,99.90
2019-06-20T03:03:29.565Z,99.90
2019-06-20T03:05:59.277Z,99.90
2019-06-20T03:08:29.099Z,99.90
2019-06-20T03:10:58.525Z,99.90
2019-06-20T03:13:28.159Z,99.90
2019-06-20T03:15:58.874Z,99.90
2019-06-20T03:18:28.335Z,99.90
2019-06-20T03:20:59.346Z,99.90
2019-06-20T03:23:28.818Z,99.90
2019-06-20T03:25:58.329Z,99.90
2019-06-20T03:28:27.775Z,99.90
2019-06-20T03:30:57.222Z,99.90
2019-06-20T03:33:26.680Z,99.90
2019-06-20T03:35:56.498Z,99.90
2019-06-20T03:38:25.936Z,99.90
2019-06-20T03:40:55.938Z,99.90
2019-06-20T03:43:25.370Z,99.90
2019-06-20T03:45:54.805Z,99.90
2019-06-20T03:48:24.509Z,99.90
2019-06-20T03:50:53.925Z,99.90
2019-06-20T03:53:23.346Z,98.90
2019-06-20T03:55:52.789Z,96.90
2019-06-20T03:58:22.502Z,95.70
2019-06-20T04:00:51.951Z,94.10
2019-06-20T04:03:21.434Z,93.00
2019-06-20T04:05:50.875Z,92.70
2019-06-20T04:08:20.764Z,91.60
2019-06-20T04:10:50.204Z,91.30
2019-06-20T04:13:19.605Z,91.90
2019-06-20T04:15:49.082Z,91.60
2019-06-20T04:18:18.819Z,91.40
2019-06-20T04:20:48.346Z,91.60
2019-06-20T04:23:18.128Z,90.70
2019-06-20T04:25:47.553Z,91.30
2019-06-20T04:28:17.093Z,91.30
2019-06-20T04:30:46.629Z,92.40
2019-06-20T04:33:16.071Z,93.30
2019-06-20T04:35:45.487Z,94.20
2019-06-20T04:38:15.269Z,93.90
2019-06-20T04:40:44.780Z,94.60
2019-06-20T04:43:14.461Z,95.20
2019-06-20T04:46:02.826Z,95.70
2019-06-20T04:48:32.375Z,96.50
2019-06-20T04:51:01.798Z,95.80
2019-06-20T04:53:31.246Z,95.70
2019-06-20T04:56:00.678Z,95.30
2019-06-20T04:58:30.143Z,95.20
2019-06-20T05:01:01.073Z,95.10
2019-06-20T05:03:30.818Z,94.70
2019-06-20T05:06:00.256Z,95.20
2019-06-20T05:08:29.732Z,95.20
2019-06-20T05:10:59.454Z,93.20
2019-06-20T05:13:29.296Z,92.80
2019-06-20T05:15:58.734Z,92.10
2019-06-20T05:18:28.528Z,91.30
2019-06-20T05:20:57.961Z,90.40
2019-06-20T05:23:27.389Z,88.30
2019-06-20T05:25:56.824Z,86.10
2019-06-20T05:28:26.688Z,83.20
2019-06-20T05:30:56.113Z,82.30
2019-06-20T05:33:25.550Z,78.00
2019-06-20T05:35:54.974Z,76.40
2019-06-20T05:38:24.729Z,76.10
2019-06-20T05:40:54.496Z,73.70
2019-06-20T05:43:23.916Z,74.40
2019-06-20T05:46:08.252Z,74.50
2019-06-20T05:48:25.400Z,73.60
2019-06-20T05:50:54.952Z,73.50
2019-06-20T05:53:24.365Z,75.60
2019-06-20T05:55:53.809Z,76.00
2019-06-20T05:58:23.518Z,80.20
2019-06-20T06:00:54.863Z,83.40
2019-06-20T06:03:24.303Z,86.10
2019-06-20T06:05:54.669Z,88.60
2019-06-20T06:08:24.193Z,89.20
2019-06-20T06:11:07.700Z,89.90
2019-06-20T06:13:37.176Z,90.00
2019-06-20T06:16:06.618Z,90.20
2019-06-20T06:18:36.378Z,88.60
2019-06-20T06:21:06.395Z,86.70
2019-06-20T06:23:35.801Z,82.90
2019-06-20T06:26:05.219Z,80.90
2019-06-20T06:28:34.636Z,80.50
2019-06-20T06:31:04.110Z,79.10
2019-06-20T06:33:33.574Z,77.00
2019-06-20T06:36:02.989Z,77.90
2019-06-20T06:38:32.432Z,77.10
2019-06-20T06:41:02.227Z,75.90
2019-06-20T06:43:31.634Z,76.70
2019-06-20T06:46:01.030Z,75.90
2019-06-20T06:48:30.483Z,74.50
2019-06-20T06:50:59.899Z,74.60
2019-06-20T06:53:29.769Z,73.40
2019-06-20T06:55:59.189Z,71.10
2019-06-20T06:58:28.588Z,70.30
2019-06-20T07:00:58.009Z,69.40
2019-06-20T07:03:27.731Z,69.90
2019-06-20T07:05:57.467Z,66.40
2019-06-20T07:08:26.894Z,65.30
2019-06-20T07:10:56.335Z,66.90
2019-06-20T07:13:25.719Z,64.70
2019-06-20T07:15:55.183Z,64.80
2019-06-20T07:18:24.608Z,66.40
2019-06-20T07:20:54.070Z,63.90
2019-06-20T07:23:23.481Z,61.50
2019-06-20T07:25:52.901Z,63.30
2019-06-20T07:28:22.328Z,64.60
2019-06-20T07:30:51.786Z,62.60
2019-06-20T07:33:21.193Z,63.70
2019-06-20T07:35:50.766Z,63.00
2019-06-20T07:38:20.118Z,67.90
2019-06-20T07:40:49.598Z,63.30
2019-06-20T07:43:18.998Z,62.90
2019-06-20T07:46:02.034Z,59.50
2019-06-20T07:48:19.508Z,61.10
2019-06-20T07:50:48.968Z,60.90
2019-06-20T07:53:19.203Z,58.90
2019-06-20T07:55:48.609Z,64.20
2019-06-20T07:58:18.048Z,63.60
2019-06-20T08:00:47.822Z,64.20
2019-06-20T08:03:17.251Z,65.00
2019-06-20T08:05:46.665Z,66.90
2019-06-20T08:08:16.076Z,70.80
2019-06-20T08:10:45.508Z,65.10
2019-06-20T08:13:14.910Z,64.40
2019-06-20T08:15:44.334Z,66.50
2019-06-20T08:18:13.942Z,68.40
2019-06-20T08:20:43.352Z,63.80
2019-06-20T08:23:12.835Z,65.40
2019-06-20T08:25:42.238Z,64.40
2019-06-20T08:28:11.982Z,63.60
2019-06-20T08:30:41.405Z,68.60
2019-06-20T08:33:12.271Z,66.50
2019-06-20T08:35:42.114Z,68.90
2019-06-20T08:38:11.842Z,69.30
2019-06-20T08:40:42.127Z,68.60
2019-06-20T08:43:12.092Z,71.50
2019-06-20T08:45:42.803Z,68.70
2019-06-20T08:48:12.617Z,69.40
2019-06-20T08:50:42.240Z,69.80
2019-06-20T08:53:11.984Z,70.00
2019-06-20T08:55:41.417Z,69.30
2019-06-20T08:58:10.842Z,72.60
2019-06-20T09:00:40.881Z,69.80
2019-06-20T09:03:10.298Z,73.50
2019-06-20T09:05:39.750Z,73.50
2019-06-20T09:08:11.416Z,68.90
2019-06-20T09:10:41.412Z,70.60
2019-06-20T09:13:12.466Z,71.60
2019-06-20T09:15:43.185Z,67.30
2019-06-20T09:18:13.133Z,68.10
2019-06-20T09:20:42.672Z,71.10
2019-06-20T09:23:12.136Z,67.60
2019-06-20T09:25:41.941Z,69.10
2019-06-20T09:28:11.401Z,69.60
2019-06-20T09:30:40.813Z,70.90
2019-06-20T09:33:10.233Z,68.70
2019-06-20T09:35:40.053Z,76.80
2019-06-20T09:38:09.467Z,69.20
2019-06-20T09:40:39.093Z,73.30
2019-06-20T09:43:08.804Z,67.30
2019-06-20T09:45:38.403Z,72.70
2019-06-20T09:48:07.819Z,69.30
2019-06-20T09:50:37.307Z,68.80
2019-06-20T09:53:06.761Z,67.10
2019-06-20T09:55:36.233Z,68.10
2019-06-20T09:58:08.019Z,66.50
2019-06-20T10:00:38.355Z,65.90
2019-06-20T10:03:07.817Z,62.30
2019-06-20T10:05:37.279Z,61.20
2019-06-20T10:08:06.838Z,60.90
2019-06-20T10:10:36.449Z,62.20
2019-06-20T10:13:05.882Z,61.90
2019-06-20T10:15:37.457Z,62.90
2019-06-20T10:18:07.253Z,66.40
2019-06-20T10:20:38.837Z,66.70
2019-06-20T10:23:07.787Z,67.30
2019-06-20T10:25:37.292Z,69.50
2019-06-20T10:28:06.710Z,69.80
2019-06-20T10:30:36.128Z,70.30
2019-06-20T10:33:05.748Z,72.70
2019-06-20T10:35:35.177Z,73.20
2019-06-20T10:38:04.677Z,72.50
2019-06-20T10:40:34.125Z,72.50
2019-06-20T10:43:03.539Z,70.60
2019-06-20T10:45:34.073Z,73.10
2019-06-20T10:48:03.511Z,74.10
2019-06-20T10:50:33.236Z,71.80
2019-06-20T10:53:02.698Z,72.70
2019-06-20T10:55:32.129Z,73.10
2019-06-20T10:58:01.735Z,72.80
2019-06-20T11:00:32.000Z,72.90
2019-06-20T11:03:01.511Z,72.00
2019-06-20T11:05:30.965Z,72.00
2019-06-20T11:08:00.805Z,71.30
2019-06-20T11:10:31.202Z,72.50
2019-06-20T11:13:00.671Z,71.80
2019-06-20T11:15:30.290Z,73.30
2019-06-20T11:17:59.748Z,73.40
2019-06-20T11:20:29.350Z,72.50
2019-06-20T11:22:58.785Z,75.50
2019-06-20T11:25:30.282Z,71.40
2019-06-20T11:28:00.044Z,72.90
2019-06-20T11:30:44.917Z,70.70
2019-06-20T11:33:02.552Z,69.60
2019-06-20T11:35:31.977Z,69.80
2019-06-20T11:38:01.767Z,68.60
2019-06-20T11:40:31.209Z,74.30
2019-06-20T11:43:00.694Z,68.20
2019-06-20T11:45:30.488Z,67.30
2019-06-20T11:47:59.938Z,70.80
2019-06-20T11:50:29.359Z,68.70
2019-06-20T11:52:58.834Z,69.50
2019-06-20T11:55:28.658Z,69.10
2019-06-20T11:57:58.106Z,67.40
2019-06-20T12:00:29.476Z,65.20
2019-06-20T12:02:59.016Z,72.20
2019-06-20T12:05:28.572Z,70.50
2019-06-20T12:07:58.049Z,63.60
2019-06-20T12:10:27.559Z,65.70
2019-06-20T12:12:56.895Z,66.00
2019-06-20T12:15:26.748Z,66.60
2019-06-20T12:17:56.558Z,66.60
2019-06-20T12:20:25.978Z,66.00
2019-06-20T12:22:55.384Z,64.70
2019-06-20T12:25:25.430Z,62.50
2019-06-20T12:27:54.842Z,61.30
2019-06-20T12:30:24.782Z,58.40
2019-06-20T12:32:54.332Z,59.30
2019-06-20T12:35:23.770Z,56.60
2019-06-20T12:37:53.549Z,58.10
2019-06-20T12:40:23.358Z,60.70
2019-06-20T12:42:52.876Z,57.70
2019-06-20T12:45:22.301Z,57.00
2019-06-20T12:47:51.725Z,59.60
2019-06-20T12:50:21.491Z,62.90
2019-06-20T12:52:50.972Z,59.70
2019-06-20T12:55:20.442Z,59.80
2019-06-20T12:57:49.922Z,62.60
2019-06-20T13:00:21.140Z,60.20
2019-06-20T13:02:50.567Z,63.30
2019-06-20T13:05:21.927Z,64.90
2019-06-20T13:07:51.757Z,62.50
2019-06-20T13:10:21.565Z,60.10
2019-06-20T13:12:51.631Z,60.10
2019-06-20T13:15:21.379Z,62.40
2019-06-20T13:17:50.842Z,62.70
2019-06-20T13:20:21.963Z,59.80
2019-06-20T13:22:51.412Z,62.10
2019-06-20T13:25:22.234Z,64.20
2019-06-20T13:27:51.813Z,62.30
2019-06-20T13:30:22.067Z,63.90
2019-06-20T13:32:51.546Z,66.00
2019-06-20T13:35:21.692Z,66.90
2019-06-20T13:37:51.321Z,66.10
2019-06-20T13:40:21.060Z,68.50
2019-06-20T13:42:50.573Z,67.10
2019-06-20T13:45:22.011Z,67.90
2019-06-20T13:47:52.701Z,67.50
2019-06-20T13:50:23.053Z,70.00
2019-06-20T13:52:52.487Z,69.70
2019-06-20T13:55:22.231Z,71.60
2019-06-20T13:57:51.650Z,73.30
2019-06-20T14:00:22.030Z,72.50
2019-06-20T14:02:51.868Z,73.00
2019-06-20T14:05:22.168Z,75.10
2019-06-20T14:07:55.455Z,76.90
2019-06-20T14:10:22.779Z,78.90
2019-06-20T14:12:52.220Z,80.70
2019-06-20T14:15:21.668Z,83.10
2019-06-20T14:17:51.508Z,85.00
2019-06-20T14:20:21.082Z,88.80
2019-06-20T14:22:52.115Z,91.10
2019-06-20T14:25:22.427Z,92.10
2019-06-20T14:27:51.891Z,94.60
2019-06-20T14:30:21.731Z,95.80
2019-06-20T14:32:51.541Z,98.30
2019-06-20T14:35:21.508Z,99.70
2019-06-20T14:37:51.671Z,99.90
2019-06-20T14:40:22.334Z,99.90
2019-06-20T14:42:52.348Z,99.90
2019-06-20T14:45:22.440Z,99.90
2019-06-20T14:47:52.659Z,99.90
2019-06-20T14:50:24.054Z,99.90
2019-06-20T14:52:54.346Z,99.90
2019-06-20T14:55:23.889Z,99.90
2019-06-20T14:57:54.631Z,99.90
2019-06-20T15:00:25.989Z,99.90
2019-06-20T15:02:58.419Z,99.90
2019-06-20T15:05:26.851Z,99.90
2019-06-20T15:07:56.309Z,99.90
2019-06-20T15:10:25.706Z,99.90
2019-06-20T15:12:56.020Z,99.90
2019-06-20T15:15:25.647Z,99.90
2019-06-20T15:17:57.401Z,99.90
2019-06-20T15:20:26.831Z,99.90
2019-06-20T15:22:56.839Z,99.70
2019-06-20T15:25:26.414Z,99.90
2019-06-20T15:27:57.344Z,96.40
2019-06-20T15:30:27.229Z,96.40
2019-06-20T15:33:07.536Z,95.60
2019-06-20T15:35:27.766Z,96.70
2019-06-20T15:37:57.735Z,98.80
2019-06-20T15:40:27.379Z,98.10
2019-06-20T15:42:57.402Z,99.30
2019-06-20T15:45:27.979Z,98.00
2019-06-20T15:47:57.414Z,99.30
2019-06-20T15:50:26.818Z,97.50
2019-06-20T15:52:56.603Z,96.80
2019-06-20T15:55:26.037Z,95.90
2019-06-20T15:57:55.961Z,96.60
2019-06-20T16:00:25.943Z,97.60
2019-06-20T16:03:08.814Z,97.00
2019-06-20T16:05:26.558Z,97.90
2019-06-20T16:07:56.306Z,96.90
2019-06-20T16:10:26.169Z,97.70
2019-06-20T16:12:55.646Z,96.50
2019-06-20T16:15:25.154Z,97.00
2019-06-20T16:17:54.574Z,97.50
2019-06-20T16:20:24.053Z,95.00
2019-06-20T16:22:53.559Z,95.90
2019-06-20T16:25:23.357Z,95.00
2019-06-20T16:27:52.809Z,95.30
2019-06-20T16:30:23.004Z,94.50
2019-06-20T16:32:52.427Z,94.70
2019-06-20T16:35:21.917Z,92.80
2019-06-20T16:37:51.617Z,93.40
2019-06-20T16:40:33.310Z,92.50
2019-06-20T16:43:03.138Z,93.40
2019-06-20T16:45:32.576Z,94.00
2019-06-20T16:48:02.035Z,92.80
2019-06-20T16:50:32.118Z,92.40
2019-06-20T16:53:01.894Z,91.20
2019-06-20T16:55:31.341Z,91.70
2019-06-20T16:58:00.941Z,92.80
2019-06-20T17:00:30.671Z,91.70
2019-06-20T17:03:00.086Z,93.00
2019-06-20T17:05:29.935Z,93.10
2019-06-20T17:07:59.401Z,91.70
2019-06-20T17:10:29.126Z,92.90
2019-06-20T17:12:58.844Z,93.10
2019-06-20T17:15:28.341Z,92.70
2019-06-20T17:17:57.779Z,93.40
2019-06-20T17:20:27.208Z,93.60
2019-06-20T17:22:56.661Z,92.60
2019-06-20T17:25:26.102Z,93.10
2019-06-20T17:27:55.590Z,94.10
2019-06-20T17:30:27.398Z,92.90
2019-06-20T17:32:56.817Z,93.10
2019-06-20T17:35:26.597Z,92.80
2019-06-20T17:37:56.055Z,92.40
2019-06-20T17:40:26.041Z,92.10
2019-06-20T17:42:55.457Z,92.50
2019-06-20T17:45:25.384Z,92.80
2019-06-20T17:47:54.821Z,92.70
2019-06-20T17:50:25.964Z,92.70
2019-06-20T17:52:55.364Z,92.80
2019-06-20T17:55:24.907Z,93.20
2019-06-20T17:57:54.348Z,93.20
2019-06-20T18:00:24.642Z,93.40
2019-06-20T18:02:54.075Z,94.00
2019-06-20T18:05:24.123Z,93.40
2019-06-20T18:07:53.537Z,93.10
2019-06-20T18:10:23.377Z,93.10
2019-06-20T18:12:53.704Z,93.70
2019-06-20T18:15:23.857Z,93.90
2019-06-20T18:17:53.286Z,94.90
2019-06-20T18:20:23.084Z,95.40
2019-06-20T18:22:52.568Z,95.60
2019-06-20T18:25:22.073Z,96.00
2019-06-20T18:27:51.990Z,96.40
2019-06-20T18:30:28.618Z,96.70
2019-06-20T18:32:58.511Z,97.10
2019-06-20T18:35:27.996Z,97.50
2019-06-20T18:37:57.463Z,97.80
2019-06-20T18:40:27.357Z,98.10
2019-06-20T18:42:56.758Z,98.40
2019-06-20T18:45:26.524Z,98.60
2019-06-20T18:47:56.889Z,98.60
2019-06-20T18:50:26.330Z,98.80
2019-06-20T18:52:56.906Z,99.00
2019-06-20T18:55:26.370Z,99.10
2019-06-20T18:57:55.823Z,99.50
2019-06-20T19:00:34.685Z,99.50
2019-06-20T19:02:58.246Z,99.60
2019-06-20T19:05:28.034Z,99.70
2019-06-20T19:07:57.535Z,99.90
2019-06-20T19:10:27.381Z,99.90
2019-06-20T19:12:57.146Z,99.90
2019-06-20T19:15:27.307Z,99.90
2019-06-20T19:17:57.097Z,99.90
2019-06-20T19:20:27.222Z,99.90
2019-06-20T19:22:57.572Z,99.90
2019-06-20T19:25:27.050Z,99.90
2019-06-20T19:27:56.908Z,99.90
2019-06-20T19:30:44.461Z,99.90
2019-06-20T19:33:14.274Z,99.90
2019-06-20T19:35:43.758Z,99.90
2019-06-20T19:38:13.170Z,99.90
2019-06-20T19:40:46.272Z,99.90
2019-06-20T19:43:16.092Z,99.90
2019-06-20T19:45:45.630Z,99.90
2019-06-20T19:48:15.865Z,99.90
2019-06-20T19:50:46.485Z,99.90
2019-06-20T19:53:16.340Z,99.90
2019-06-20T19:55:45.898Z,99.90
2019-06-20T19:58:15.496Z,99.90
2019-06-20T20:00:45.559Z,99.90
2019-06-20T20:03:15.030Z,99.90
2019-06-20T20:05:45.009Z,99.90
2019-06-20T20:08:14.851Z,99.90
2019-06-20T20:10:46.057Z,99.90
2019-06-20T20:13:15.654Z,99.90
2019-06-20T20:15:45.616Z,99.90
2019-06-20T20:18:16.117Z,99.90
2019-06-20T20:20:47.620Z,99.90
2019-06-20T20:23:17.566Z,99.90
2019-06-20T20:25:47.343Z,99.90
2019-06-20T20:28:16.998Z,99.90
2019-06-20T20:30:47.024Z,99.90
2019-06-20T20:33:16.752Z,99.90
2019-06-20T20:35:46.681Z,99.90
2019-06-20T20:38:17.070Z,99.90
2019-06-20T20:40:46.680Z,99.90
2019-06-20T20:43:16.287Z,99.90
2019-06-20T20:45:45.861Z,99.90
2019-06-20T20:48:15.626Z,99.90
2019-06-20T20:50:45.561Z,99.90
2019-06-20T20:53:15.219Z,99.90
2019-06-20T20:55:44.771Z,99.90
2019-06-20T20:58:14.402Z,99.90
2019-06-20T21:01:15.149Z,99.90
2019-06-20T21:03:45.222Z,99.90
2019-06-20T21:06:14.814Z,99.90
2019-06-20T21:08:44.881Z,99.90
2019-06-20T21:11:14.518Z,99.90
2019-06-20T21:13:44.442Z,99.90
2019-06-20T21:16:14.037Z,99.90
2019-06-20T21:18:43.629Z,99.90
2019-06-20T21:21:13.232Z,99.90
2019-06-20T21:23:43.152Z,99.90
2019-06-20T21:26:12.739Z,99.90
2019-06-20T21:28:42.344Z,99.90
2019-06-20T21:31:12.291Z,99.90
2019-06-20T21:33:41.899Z,99.90
2019-06-20T21:36:11.541Z,99.90
2019-06-20T21:38:41.231Z,99.90
2019-06-20T21:41:11.162Z,99.90
2019-06-20T21:43:40.731Z,99.90
2019-06-20T21:46:10.373Z,99.90
2019-06-20T21:48:39.978Z,99.90
2019-06-20T21:51:09.539Z,99.90
2019-06-20T21:53:39.107Z,99.90
2019-06-20T21:56:09.027Z,99.90
2019-06-20T21:58:38.872Z,99.90
2019-06-20T22:01:10.377Z,99.90
2019-06-20T22:03:40.064Z,99.90
2019-06-20T22:06:22.877Z,99.90
2019-06-20T22:08:41.002Z,99.90
2019-06-20T22:11:10.601Z,99.90
2019-06-20T22:13:41.784Z,99.90
2019-06-20T22:16:11.374Z,99.90
2019-06-20T22:18:41.006Z,99.90
2019-06-20T22:21:10.624Z,99.90
2019-06-20T22:23:40.179Z,99.90
2019-06-20T22:26:09.790Z,99.90
2019-06-20T22:28:39.706Z,99.90
2019-06-20T22:31:09.306Z,99.90
2019-06-20T22:33:39.197Z,99.90
2019-06-20T22:36:08.782Z,99.90
2019-06-20T22:38:38.391Z,99.90
2019-06-20T22:41:08.021Z,99.90
2019-06-20T22:43:37.585Z,99.90
2019-06-20T22:46:07.174Z,99.90
2019-06-20T22:48:36.775Z,99.90
2019-06-20T22:51:06.368Z,99.90
2019-06-20T22:53:35.938Z,99.90
2019-06-20T22:56:05.538Z,99.90
2019-06-20T22:58:35.137Z,99.90
2019-06-20T23:01:04.724Z,99.90
2019-06-20T23:03:34.306Z,99.90
2019-06-20T23:06:03.882Z,99.90
2019-06-20T23:08:33.461Z,99.90
2019-06-20T23:11:03.088Z,99.90
2019-06-20T23:13:32.516Z,99.90
2019-06-20T23:16:01.992Z,99.90
2019-06-20T23:18:31.436Z,99.90
2019-06-20T23:21:04.836Z,99.90
2019-06-20T23:23:31.941Z,99.90
2019-06-20T23:26:03.286Z,99.90
2019-06-20T23:28:32.739Z,99.90
2019-06-20T23:31:02.185Z,99.90
2019-06-20T23:33:31.614Z,99.90
2019-06-20T23:36:01.038Z,99.90
2019-06-20T23:38:30.486Z,99.90
2019-06-20T23:40:59.975Z,99.90
2019-06-20T23:43:29.698Z,99.90
2019-06-20T23:45:59.110Z,99.90
2019-06-20T23:48:28.538Z,99.90
2019-06-20T23:50:57.987Z,99.90
2019-06-20T23:53:28.130Z,99.90
2019-06-20T23:55:57.575Z,99.90
2019-06-20T23:58:27.071Z,99.90
